sensor_id;sensor_type;location;lat;lon;timestamp;P1;durP1;ratioP1;P2;durP2;ratioP2
8861;SDS011;4799;50.996;4.754;2022-10-16T00:01:29;5.03;;;1.90;;
8861;SDS011;4799;50.996;4.754;2022-10-16T00:03:56;2.40;;;1.73;;
8861;SDS011;4799;50.996;4.754;2022-10-16T00:06:24;4.37;;;1.87;;
8861;SDS011;4799;50.996;4.754;2022-10-16T00:08:50;3.83;;;1.80;;
8861;SDS011;4799;50.996;4.754;2022-10-16T00:11:18;2.60;;;1.77;;
8861;SDS011;4799;50.996;4.754;2022-10-16T00:13:47;1.87;;;1.60;;
8861;SDS011;4799;50.996;4.754;2022-10-16T00:16:14;3.00;;;1.90;;
8861;SDS011;4799;50.996;4.754;2022-10-16T00:18:40;3.23;;;1.70;;
8861;SDS011;4799;50.996;4.754;2022-10-16T00:21:08;2.83;;;1.60;;
8861;SDS011;4799;50.996;4.754;2022-10-16T00:23:36;1.80;;;1.50;;
8861;SDS011;4799;50.996;4.754;2022-10-16T00:26:03;2.83;;;1.60;;
8861;SDS011;4799;50.996;4.754;2022-10-16T00:28:30;3.00;;;1.63;;
8861;SDS011;4799;50.996;4.754;2022-10-16T00:30:56;4.10;;;1.70;;
8861;SDS011;4799;50.996;4.754;2022-10-16T00:33:22;3.77;;;1.60;;
8861;SDS011;4799;50.996;4.754;2022-10-16T00:35:48;2.27;;;1.50;;
8861;SDS011;4799;50.996;4.754;2022-10-16T00:38:15;2.33;;;1.40;;
8861;SDS011;4799;50.996;4.754;2022-10-16T00:40:41;2.90;;;1.60;;
8861;SDS011;4799;50.996;4.754;2022-10-16T00:43:14;2.70;;;1.40;;
8861;SDS011;4799;50.996;4.754;2022-10-16T00:46:13;1.50;;;1.33;;
8861;SDS011;4799;50.996;4.754;2022-10-16T00:51:38;3.83;;;1.30;;
8861;SDS011;4799;50.996;4.754;2022-10-16T00:54:17;2.27;;;1.60;;
8861;SDS011;4799;50.996;4.754;2022-10-16T00:56:56;2.13;;;1.50;;
8861;SDS011;4799;50.996;4.754;2022-10-16T00:59:27;1.67;;;1.47;;
8861;SDS011;4799;50.996;4.754;2022-10-16T01:01:58;2.40;;;1.40;;
8861;SDS011;4799;50.996;4.754;2022-10-16T01:04:24;2.00;;;1.37;;
8861;SDS011;4799;50.996;4.754;2022-10-16T01:13:13;1.87;;;1.23;;
8861;SDS011;4799;50.996;4.754;2022-10-16T01:21:16;1.50;;;1.40;;
8861;SDS011;4799;50.996;4.754;2022-10-16T01:24:04;3.17;;;1.43;;
8861;SDS011;4799;50.996;4.754;2022-10-16T01:35:09;3.20;;;1.47;;
8861;SDS011;4799;50.996;4.754;2022-10-16T01:40:14;1.37;;;1.27;;
8861;SDS011;4799;50.996;4.754;2022-10-16T01:42:55;2.50;;;1.30;;
8861;SDS011;4799;50.996;4.754;2022-10-16T01:45:26;2.87;;;1.50;;
8861;SDS011;4799;50.996;4.754;2022-10-16T01:47:55;1.57;;;1.47;;
8861;SDS011;4799;50.996;4.754;2022-10-16T01:50:22;1.63;;;1.50;;
8861;SDS011;4799;50.996;4.754;2022-10-16T01:52:51;4.07;;;1.23;;
8861;SDS011;4799;50.996;4.754;2022-10-16T01:55:21;2.07;;;1.70;;
8861;SDS011;4799;50.996;4.754;2022-10-16T01:57:52;4.40;;;1.63;;
8861;SDS011;4799;50.996;4.754;2022-10-16T02:00:20;1.60;;;1.50;;
8861;SDS011;4799;50.996;4.754;2022-10-16T02:02:48;3.17;;;1.57;;
8861;SDS011;4799;50.996;4.754;2022-10-16T02:07:47;1.47;;;1.30;;
8861;SDS011;4799;50.996;4.754;2022-10-16T02:10:13;2.40;;;1.50;;
8861;SDS011;4799;50.996;4.754;2022-10-16T02:12:40;3.90;;;1.47;;
8861;SDS011;4799;50.996;4.754;2022-10-16T02:15:09;1.60;;;1.50;;
8861;SDS011;4799;50.996;4.754;2022-10-16T02:17:35;3.00;;;1.73;;
8861;SDS011;4799;50.996;4.754;2022-10-16T02:20:01;2.20;;;1.33;;
8861;SDS011;4799;50.996;4.754;2022-10-16T02:22:30;2.70;;;1.57;;
8861;SDS011;4799;50.996;4.754;2022-10-16T02:25:02;3.47;;;1.77;;
8861;SDS011;4799;50.996;4.754;2022-10-16T02:30:22;2.60;;;1.30;;
8861;SDS011;4799;50.996;4.754;2022-10-16T02:33:12;2.37;;;1.60;;
8861;SDS011;4799;50.996;4.754;2022-10-16T02:35:39;1.67;;;1.57;;
8861;SDS011;4799;50.996;4.754;2022-10-16T02:38:08;2.33;;;1.60;;
8861;SDS011;4799;50.996;4.754;2022-10-16T02:40:35;1.97;;;1.27;;
8861;SDS011;4799;50.996;4.754;2022-10-16T02:43:02;1.67;;;1.40;;
8861;SDS011;4799;50.996;4.754;2022-10-16T02:45:29;3.87;;;1.73;;
8861;SDS011;4799;50.996;4.754;2022-10-16T02:47:55;2.73;;;1.70;;
8861;SDS011;4799;50.996;4.754;2022-10-16T02:50:20;3.93;;;1.67;;
8861;SDS011;4799;50.996;4.754;2022-10-16T02:52:47;2.37;;;1.60;;
8861;SDS011;4799;50.996;4.754;2022-10-16T02:55:13;1.60;;;1.50;;
8861;SDS011;4799;50.996;4.754;2022-10-16T02:57:39;3.03;;;1.70;;
8861;SDS011;4799;50.996;4.754;2022-10-16T03:00:06;2.63;;;1.60;;
8861;SDS011;4799;50.996;4.754;2022-10-16T03:02:33;3.70;;;1.63;;
8861;SDS011;4799;50.996;4.754;2022-10-16T03:04:59;2.17;;;1.60;;
8861;SDS011;4799;50.996;4.754;2022-10-16T03:07:25;2.70;;;1.63;;
8861;SDS011;4799;50.996;4.754;2022-10-16T03:09:50;1.70;;;1.60;;
8861;SDS011;4799;50.996;4.754;2022-10-16T03:12:16;2.77;;;1.80;;
8861;SDS011;4799;50.996;4.754;2022-10-16T03:14:42;2.47;;;1.90;;
8861;SDS011;4799;50.996;4.754;2022-10-16T03:17:07;2.80;;;1.70;;
8861;SDS011;4799;50.996;4.754;2022-10-16T03:19:33;3.30;;;1.83;;
8861;SDS011;4799;50.996;4.754;2022-10-16T03:21:59;2.00;;;1.80;;
8861;SDS011;4799;50.996;4.754;2022-10-16T03:24:25;2.00;;;1.80;;
8861;SDS011;4799;50.996;4.754;2022-10-16T03:26:51;4.27;;;2.10;;
8861;SDS011;4799;50.996;4.754;2022-10-16T03:29:16;2.50;;;1.80;;
8861;SDS011;4799;50.996;4.754;2022-10-16T03:31:42;2.30;;;1.80;;
8861;SDS011;4799;50.996;4.754;2022-10-16T03:34:08;3.27;;;2.20;;
8861;SDS011;4799;50.996;4.754;2022-10-16T03:36:33;3.00;;;2.00;;
8861;SDS011;4799;50.996;4.754;2022-10-16T03:38:59;3.30;;;2.13;;
8861;SDS011;4799;50.996;4.754;2022-10-16T03:41:25;4.13;;;2.07;;
8861;SDS011;4799;50.996;4.754;2022-10-16T03:43:51;2.50;;;1.93;;
8861;SDS011;4799;50.996;4.754;2022-10-16T03:46:16;2.90;;;2.00;;
8861;SDS011;4799;50.996;4.754;2022-10-16T03:48:42;3.40;;;1.93;;
8861;SDS011;4799;50.996;4.754;2022-10-16T03:51:08;4.87;;;2.00;;
8861;SDS011;4799;50.996;4.754;2022-10-16T03:53:33;2.10;;;1.90;;
8861;SDS011;4799;50.996;4.754;2022-10-16T03:55:59;2.73;;;1.80;;
8861;SDS011;4799;50.996;4.754;2022-10-16T03:58:25;3.03;;;1.80;;
8861;SDS011;4799;50.996;4.754;2022-10-16T04:00:51;3.80;;;2.20;;
8861;SDS011;4799;50.996;4.754;2022-10-16T04:03:17;2.67;;;2.00;;
8861;SDS011;4799;50.996;4.754;2022-10-16T04:05:44;2.73;;;2.03;;
8861;SDS011;4799;50.996;4.754;2022-10-16T04:08:09;3.27;;;1.90;;
8861;SDS011;4799;50.996;4.754;2022-10-16T04:10:35;4.13;;;2.20;;
8861;SDS011;4799;50.996;4.754;2022-10-16T04:13:01;2.73;;;2.30;;
8861;SDS011;4799;50.996;4.754;2022-10-16T04:15:26;3.80;;;2.27;;
8861;SDS011;4799;50.996;4.754;2022-10-16T04:17:52;3.37;;;2.30;;
8861;SDS011;4799;50.996;4.754;2022-10-16T04:20:18;3.03;;;2.40;;
8861;SDS011;4799;50.996;4.754;2022-10-16T04:22:44;2.63;;;2.40;;
8861;SDS011;4799;50.996;4.754;2022-10-16T04:25:10;3.90;;;2.10;;
8861;SDS011;4799;50.996;4.754;2022-10-16T04:27:36;3.13;;;2.40;;
8861;SDS011;4799;50.996;4.754;2022-10-16T04:30:03;2.63;;;2.17;;
8861;SDS011;4799;50.996;4.754;2022-10-16T04:32:29;3.67;;;2.40;;
8861;SDS011;4799;50.996;4.754;2022-10-16T04:34:55;4.10;;;2.30;;
8861;SDS011;4799;50.996;4.754;2022-10-16T04:37:27;2.33;;;2.03;;
8861;SDS011;4799;50.996;4.754;2022-10-16T04:39:53;3.20;;;2.20;;
8861;SDS011;4799;50.996;4.754;2022-10-16T04:42:19;4.10;;;2.40;;
8861;SDS011;4799;50.996;4.754;2022-10-16T04:44:46;2.90;;;2.17;;
8861;SDS011;4799;50.996;4.754;2022-10-16T04:47:12;4.23;;;2.60;;
8861;SDS011;4799;50.996;4.754;2022-10-16T04:49:38;3.47;;;2.30;;
8861;SDS011;4799;50.996;4.754;2022-10-16T04:52:04;2.90;;;2.40;;
8861;SDS011;4799;50.996;4.754;2022-10-16T04:54:30;4.03;;;2.53;;
8861;SDS011;4799;50.996;4.754;2022-10-16T04:56:56;2.73;;;2.50;;
8861;SDS011;4799;50.996;4.754;2022-10-16T04:59:22;2.70;;;2.40;;
8861;SDS011;4799;50.996;4.754;2022-10-16T05:01:48;4.77;;;3.03;;
8861;SDS011;4799;50.996;4.754;2022-10-16T05:04:14;3.67;;;2.80;;
8861;SDS011;4799;50.996;4.754;2022-10-16T05:06:40;3.83;;;2.67;;
8861;SDS011;4799;50.996;4.754;2022-10-16T05:09:06;4.47;;;3.13;;
8861;SDS011;4799;50.996;4.754;2022-10-16T05:11:33;3.13;;;2.60;;
8861;SDS011;4799;50.996;4.754;2022-10-16T05:13:59;5.43;;;3.10;;
8861;SDS011;4799;50.996;4.754;2022-10-16T05:16:25;2.90;;;2.60;;
8861;SDS011;4799;50.996;4.754;2022-10-16T05:18:51;6.80;;;2.93;;
8861;SDS011;4799;50.996;4.754;2022-10-16T05:21:17;3.73;;;2.60;;
8861;SDS011;4799;50.996;4.754;2022-10-16T05:23:43;6.67;;;3.30;;
8861;SDS011;4799;50.996;4.754;2022-10-16T05:26:10;4.37;;;3.30;;
8861;SDS011;4799;50.996;4.754;2022-10-16T05:28:35;6.30;;;2.73;;
8861;SDS011;4799;50.996;4.754;2022-10-16T05:31:08;5.43;;;2.97;;
8861;SDS011;4799;50.996;4.754;2022-10-16T05:33:34;5.73;;;3.20;;
8861;SDS011;4799;50.996;4.754;2022-10-16T05:36:01;4.17;;;2.90;;
8861;SDS011;4799;50.996;4.754;2022-10-16T05:38:28;3.77;;;3.27;;
8861;SDS011;4799;50.996;4.754;2022-10-16T05:40:53;4.63;;;3.20;;
8861;SDS011;4799;50.996;4.754;2022-10-16T05:43:19;4.17;;;3.00;;
8861;SDS011;4799;50.996;4.754;2022-10-16T05:45:53;4.73;;;3.40;;
8861;SDS011;4799;50.996;4.754;2022-10-16T05:48:23;4.80;;;3.23;;
8861;SDS011;4799;50.996;4.754;2022-10-16T05:50:56;4.80;;;3.30;;
8861;SDS011;4799;50.996;4.754;2022-10-16T05:53:29;4.23;;;3.17;;
8861;SDS011;4799;50.996;4.754;2022-10-16T05:55:56;4.87;;;3.27;;
8861;SDS011;4799;50.996;4.754;2022-10-16T05:58:23;4.53;;;3.20;;
8861;SDS011;4799;50.996;4.754;2022-10-16T06:00:56;4.83;;;3.30;;
8861;SDS011;4799;50.996;4.754;2022-10-16T06:03:26;5.50;;;3.50;;
8861;SDS011;4799;50.996;4.754;2022-10-16T06:05:52;5.57;;;3.73;;
8861;SDS011;4799;50.996;4.754;2022-10-16T06:08:19;4.60;;;3.40;;
8861;SDS011;4799;50.996;4.754;2022-10-16T06:10:46;3.53;;;3.13;;
8861;SDS011;4799;50.996;4.754;2022-10-16T06:13:12;5.47;;;3.53;;
8861;SDS011;4799;50.996;4.754;2022-10-16T06:15:39;3.50;;;3.20;;
8861;SDS011;4799;50.996;4.754;2022-10-16T06:18:09;5.17;;;3.23;;
8861;SDS011;4799;50.996;4.754;2022-10-16T06:20:35;7.17;;;3.70;;
8861;SDS011;4799;50.996;4.754;2022-10-16T06:23:01;5.33;;;3.53;;
8861;SDS011;4799;50.996;4.754;2022-10-16T06:25:29;5.57;;;3.57;;
8861;SDS011;4799;50.996;4.754;2022-10-16T06:27:56;4.70;;;3.77;;
8861;SDS011;4799;50.996;4.754;2022-10-16T06:30:21;7.17;;;3.60;;
8861;SDS011;4799;50.996;4.754;2022-10-16T06:32:47;7.97;;;3.90;;
8861;SDS011;4799;50.996;4.754;2022-10-16T06:35:13;5.07;;;3.60;;
8861;SDS011;4799;50.996;4.754;2022-10-16T06:37:39;4.80;;;3.87;;
8861;SDS011;4799;50.996;4.754;2022-10-16T06:40:04;4.90;;;3.43;;
8861;SDS011;4799;50.996;4.754;2022-10-16T06:42:31;4.30;;;3.67;;
8861;SDS011;4799;50.996;4.754;2022-10-16T06:44:56;6.03;;;4.10;;
8861;SDS011;4799;50.996;4.754;2022-10-16T06:47:22;5.40;;;3.70;;
8861;SDS011;4799;50.996;4.754;2022-10-16T06:49:48;4.40;;;4.00;;
8861;SDS011;4799;50.996;4.754;2022-10-16T06:52:13;4.10;;;3.80;;
8861;SDS011;4799;50.996;4.754;2022-10-16T06:54:39;4.83;;;3.50;;
8861;SDS011;4799;50.996;4.754;2022-10-16T06:57:05;5.77;;;3.70;;
8861;SDS011;4799;50.996;4.754;2022-10-16T06:59:31;4.40;;;3.40;;
8861;SDS011;4799;50.996;4.754;2022-10-16T07:01:56;4.83;;;3.43;;
8861;SDS011;4799;50.996;4.754;2022-10-16T07:04:22;4.00;;;3.37;;
8861;SDS011;4799;50.996;4.754;2022-10-16T07:06:48;4.90;;;3.27;;
8861;SDS011;4799;50.996;4.754;2022-10-16T07:09:13;4.30;;;3.20;;
8861;SDS011;4799;50.996;4.754;2022-10-16T07:11:39;6.43;;;3.20;;
8861;SDS011;4799;50.996;4.754;2022-10-16T07:14:12;3.57;;;2.93;;
8861;SDS011;4799;50.996;4.754;2022-10-16T07:16:42;5.23;;;3.13;;
8861;SDS011;4799;50.996;4.754;2022-10-16T07:19:08;3.57;;;2.90;;
8861;SDS011;4799;50.996;4.754;2022-10-16T07:21:36;3.20;;;2.90;;
8861;SDS011;4799;50.996;4.754;2022-10-16T07:24:03;6.07;;;3.13;;
8861;SDS011;4799;50.996;4.754;2022-10-16T07:26:32;5.13;;;3.10;;
8861;SDS011;4799;50.996;4.754;2022-10-16T07:29:00;4.27;;;2.97;;
8861;SDS011;4799;50.996;4.754;2022-10-16T07:31:26;4.30;;;3.10;;
8861;SDS011;4799;50.996;4.754;2022-10-16T07:33:53;3.60;;;2.63;;
8861;SDS011;4799;50.996;4.754;2022-10-16T07:36:19;4.17;;;2.93;;
8861;SDS011;4799;50.996;4.754;2022-10-16T07:38:46;6.07;;;2.77;;
8861;SDS011;4799;50.996;4.754;2022-10-16T07:41:13;4.77;;;2.50;;
8861;SDS011;4799;50.996;4.754;2022-10-16T07:43:44;4.60;;;2.37;;
8861;SDS011;4799;50.996;4.754;2022-10-16T07:46:12;3.10;;;2.47;;
8861;SDS011;4799;50.996;4.754;2022-10-16T07:48:38;3.30;;;2.60;;
8861;SDS011;4799;50.996;4.754;2022-10-16T07:51:04;4.63;;;2.77;;
8861;SDS011;4799;50.996;4.754;2022-10-16T07:53:31;5.53;;;3.40;;
8861;SDS011;4799;50.996;4.754;2022-10-16T07:55:58;3.83;;;2.80;;
8861;SDS011;4799;50.996;4.754;2022-10-16T07:58:29;3.70;;;2.37;;
8861;SDS011;4799;50.996;4.754;2022-10-16T08:00:56;4.23;;;2.53;;
8861;SDS011;4799;50.996;4.754;2022-10-16T08:03:23;3.67;;;2.63;;
8861;SDS011;4799;50.996;4.754;2022-10-16T08:05:49;3.93;;;2.73;;
8861;SDS011;4799;50.996;4.754;2022-10-16T08:08:18;3.40;;;2.40;;
8861;SDS011;4799;50.996;4.754;2022-10-16T08:10:44;3.10;;;2.27;;
8861;SDS011;4799;50.996;4.754;2022-10-16T08:13:10;4.63;;;2.47;;
8861;SDS011;4799;50.996;4.754;2022-10-16T08:15:36;4.50;;;2.20;;
8861;SDS011;4799;50.996;4.754;2022-10-16T08:18:02;3.30;;;2.10;;
8861;SDS011;4799;50.996;4.754;2022-10-16T08:20:30;3.07;;;2.30;;
8861;SDS011;4799;50.996;4.754;2022-10-16T08:22:56;2.20;;;1.87;;
8861;SDS011;4799;50.996;4.754;2022-10-16T08:25:22;4.37;;;2.27;;
8861;SDS011;4799;50.996;4.754;2022-10-16T08:27:48;3.53;;;1.90;;
8861;SDS011;4799;50.996;4.754;2022-10-16T08:30:15;3.50;;;2.00;;
8861;SDS011;4799;50.996;4.754;2022-10-16T08:32:43;3.20;;;1.90;;
8861;SDS011;4799;50.996;4.754;2022-10-16T08:35:09;3.60;;;1.80;;
8861;SDS011;4799;50.996;4.754;2022-10-16T08:37:36;3.17;;;2.07;;
8861;SDS011;4799;50.996;4.754;2022-10-16T08:40:03;5.15;;;2.00;;
8861;SDS011;4799;50.996;4.754;2022-10-16T08:50:40;4.97;;;1.80;;
8861;SDS011;4799;50.996;4.754;2022-10-16T08:53:06;5.10;;;1.70;;
8861;SDS011;4799;50.996;4.754;2022-10-16T08:58:28;3.83;;;1.83;;
8861;SDS011;4799;50.996;4.754;2022-10-16T09:00:56;2.73;;;1.50;;
8861;SDS011;4799;50.996;4.754;2022-10-16T09:20:13;5.27;;;1.53;;
8861;SDS011;4799;50.996;4.754;2022-10-16T09:25:41;4.87;;;1.73;;
8861;SDS011;4799;50.996;4.754;2022-10-16T09:28:09;4.83;;;1.47;;
8861;SDS011;4799;50.996;4.754;2022-10-16T09:30:35;2.93;;;1.47;;
8861;SDS011;4799;50.996;4.754;2022-10-16T09:33:02;4.60;;;1.50;;
8861;SDS011;4799;50.996;4.754;2022-10-16T09:35:36;4.00;;;1.53;;
8861;SDS011;4799;50.996;4.754;2022-10-16T09:38:08;4.60;;;1.73;;
8861;SDS011;4799;50.996;4.754;2022-10-16T09:40:38;4.37;;;1.57;;
8861;SDS011;4799;50.996;4.754;2022-10-16T09:48:21;3.67;;;1.60;;
8861;SDS011;4799;50.996;4.754;2022-10-16T09:51:01;4.00;;;2.07;;
8861;SDS011;4799;50.996;4.754;2022-10-16T09:53:37;4.77;;;1.47;;
8861;SDS011;4799;50.996;4.754;2022-10-16T09:56:09;6.17;;;2.03;;
8861;SDS011;4799;50.996;4.754;2022-10-16T09:58:41;3.80;;;1.60;;
8861;SDS011;4799;50.996;4.754;2022-10-16T10:01:12;3.43;;;1.47;;
8861;SDS011;4799;50.996;4.754;2022-10-16T10:03:41;3.60;;;1.30;;
8861;SDS011;4799;50.996;4.754;2022-10-16T10:06:28;4.50;;;1.80;;
8861;SDS011;4799;50.996;4.754;2022-10-16T10:11:54;3.30;;;1.63;;
8861;SDS011;4799;50.996;4.754;2022-10-16T10:14:25;3.50;;;1.30;;
8861;SDS011;4799;50.996;4.754;2022-10-16T10:19:36;3.47;;;1.60;;
8861;SDS011;4799;50.996;4.754;2022-10-16T10:22:28;3.87;;;1.40;;
8861;SDS011;4799;50.996;4.754;2022-10-16T10:30:08;3.50;;;1.33;;
8861;SDS011;4799;50.996;4.754;2022-10-16T10:35:36;3.33;;;1.50;;
8861;SDS011;4799;50.996;4.754;2022-10-16T10:38:47;4.53;;;1.57;;
8861;SDS011;4799;50.996;4.754;2022-10-16T10:41:25;5.00;;;1.60;;
8861;SDS011;4799;50.996;4.754;2022-10-16T10:55:24;2.93;;;1.30;;
8861;SDS011;4799;50.996;4.754;2022-10-16T11:00:58;2.40;;;1.40;;
8861;SDS011;4799;50.996;4.754;2022-10-16T11:03:35;2.63;;;1.40;;
8861;SDS011;4799;50.996;4.754;2022-10-16T11:06:31;4.10;;;1.77;;
8861;SDS011;4799;50.996;4.754;2022-10-16T11:11:55;2.57;;;1.20;;
8861;SDS011;4799;50.996;4.754;2022-10-16T11:14:30;3.27;;;1.10;;
8861;SDS011;4799;50.996;4.754;2022-10-16T11:17:10;3.90;;;1.60;;
8861;SDS011;4799;50.996;4.754;2022-10-16T11:20:00;2.73;;;1.30;;
8861;SDS011;4799;50.996;4.754;2022-10-16T11:22:51;2.87;;;1.40;;
8861;SDS011;4799;50.996;4.754;2022-10-16T11:36:48;3.43;;;1.40;;
8861;SDS011;4799;50.996;4.754;2022-10-16T11:39:21;4.33;;;1.60;;
8861;SDS011;4799;50.996;4.754;2022-10-16T11:41:50;5.03;;;1.30;;
8861;SDS011;4799;50.996;4.754;2022-10-16T11:47:13;2.93;;;1.30;;
8861;SDS011;4799;50.996;4.754;2022-10-16T11:49:52;3.30;;;1.40;;
8861;SDS011;4799;50.996;4.754;2022-10-16T11:52:30;2.93;;;1.30;;
8861;SDS011;4799;50.996;4.754;2022-10-16T11:55:20;2.73;;;1.50;;
8861;SDS011;4799;50.996;4.754;2022-10-16T11:57:52;3.03;;;1.27;;
8861;SDS011;4799;50.996;4.754;2022-10-16T12:00:27;3.20;;;1.23;;
8861;SDS011;4799;50.996;4.754;2022-10-16T12:05:58;3.60;;;1.33;;
8861;SDS011;4799;50.996;4.754;2022-10-16T12:08:39;3.20;;;1.13;;
8861;SDS011;4799;50.996;4.754;2022-10-16T12:11:06;2.63;;;1.20;;
8861;SDS011;4799;50.996;4.754;2022-10-16T12:13:35;2.97;;;1.20;;
8861;SDS011;4799;50.996;4.754;2022-10-16T12:18:41;2.53;;;1.10;;
8861;SDS011;4799;50.996;4.754;2022-10-16T12:21:11;2.87;;;1.20;;
8861;SDS011;4799;50.996;4.754;2022-10-16T12:26:14;2.17;;;1.10;;
8861;SDS011;4799;50.996;4.754;2022-10-16T12:28:48;3.17;;;1.20;;
8861;SDS011;4799;50.996;4.754;2022-10-16T12:31:16;2.17;;;1.03;;
8861;SDS011;4799;50.996;4.754;2022-10-16T12:33:56;3.23;;;1.20;;
8861;SDS011;4799;50.996;4.754;2022-10-16T12:36:31;2.57;;;1.40;;
8861;SDS011;4799;50.996;4.754;2022-10-16T12:38:58;2.53;;;1.30;;
8861;SDS011;4799;50.996;4.754;2022-10-16T12:41:30;5.77;;;1.30;;
8861;SDS011;4799;50.996;4.754;2022-10-16T12:44:00;2.70;;;1.10;;
8861;SDS011;4799;50.996;4.754;2022-10-16T12:51:41;3.33;;;1.13;;
8861;SDS011;4799;50.996;4.754;2022-10-16T12:54:15;2.20;;;1.17;;
8861;SDS011;4799;50.996;4.754;2022-10-16T13:10:53;2.13;;;1.00;;
8861;SDS011;4799;50.996;4.754;2022-10-16T13:13:35;3.23;;;1.03;;
8861;SDS011;4799;50.996;4.754;2022-10-16T13:16:15;2.17;;;0.93;;
8861;SDS011;4799;50.996;4.754;2022-10-16T13:21:33;2.20;;;1.10;;
8861;SDS011;4799;50.996;4.754;2022-10-16T13:26:55;3.60;;;1.30;;
8861;SDS011;4799;50.996;4.754;2022-10-16T13:29:45;2.37;;;1.00;;
8861;SDS011;4799;50.996;4.754;2022-10-16T13:32:20;2.87;;;1.13;;
8861;SDS011;4799;50.996;4.754;2022-10-16T13:34:47;2.30;;;1.30;;
8861;SDS011;4799;50.996;4.754;2022-10-16T13:37:17;4.13;;;1.07;;
8861;SDS011;4799;50.996;4.754;2022-10-16T13:39:45;4.37;;;1.40;;
8861;SDS011;4799;50.996;4.754;2022-10-16T13:42:29;3.30;;;1.20;;
8861;SDS011;4799;50.996;4.754;2022-10-16T13:44:55;2.13;;;1.07;;
8861;SDS011;4799;50.996;4.754;2022-10-16T13:47:24;3.00;;;1.50;;
8861;SDS011;4799;50.996;4.754;2022-10-16T13:50:11;2.63;;;1.23;;
8861;SDS011;4799;50.996;4.754;2022-10-16T13:52:39;4.20;;;1.20;;
8861;SDS011;4799;50.996;4.754;2022-10-16T13:55:10;4.20;;;1.30;;
8861;SDS011;4799;50.996;4.754;2022-10-16T13:57:37;3.10;;;1.63;;
8861;SDS011;4799;50.996;4.754;2022-10-16T14:00:03;2.43;;;1.30;;
8861;SDS011;4799;50.996;4.754;2022-10-16T14:02:42;3.23;;;1.20;;
8861;SDS011;4799;50.996;4.754;2022-10-16T14:05:08;3.90;;;1.23;;
8861;SDS011;4799;50.996;4.754;2022-10-16T14:07:35;3.77;;;1.00;;
8861;SDS011;4799;50.996;4.754;2022-10-16T14:10:06;1.67;;;1.00;;
8861;SDS011;4799;50.996;4.754;2022-10-16T14:12:44;4.20;;;1.50;;
8861;SDS011;4799;50.996;4.754;2022-10-16T14:15:17;4.90;;;1.50;;
8861;SDS011;4799;50.996;4.754;2022-10-16T14:17:44;2.57;;;1.23;;
8861;SDS011;4799;50.996;4.754;2022-10-16T14:20:13;3.00;;;1.40;;
8861;SDS011;4799;50.996;4.754;2022-10-16T14:22:41;2.77;;;1.80;;
8861;SDS011;4799;50.996;4.754;2022-10-16T14:27:56;3.33;;;2.67;;
8861;SDS011;4799;50.996;4.754;2022-10-16T14:30:25;3.60;;;2.20;;
8861;SDS011;4799;50.996;4.754;2022-10-16T14:32:56;3.80;;;1.80;;
8861;SDS011;4799;50.996;4.754;2022-10-16T14:35:28;2.67;;;1.77;;
8861;SDS011;4799;50.996;4.754;2022-10-16T14:37:56;3.13;;;1.30;;
8861;SDS011;4799;50.996;4.754;2022-10-16T14:40:24;4.90;;;1.83;;
8861;SDS011;4799;50.996;4.754;2022-10-16T14:42:51;3.07;;;1.47;;
8861;SDS011;4799;50.996;4.754;2022-10-16T14:45:26;2.77;;;1.17;;
8861;SDS011;4799;50.996;4.754;2022-10-16T14:47:58;3.90;;;1.50;;
8861;SDS011;4799;50.996;4.754;2022-10-16T14:50:27;3.57;;;1.70;;
8861;SDS011;4799;50.996;4.754;2022-10-16T14:52:54;3.20;;;1.60;;
8861;SDS011;4799;50.996;4.754;2022-10-16T14:55:20;4.20;;;1.73;;
8861;SDS011;4799;50.996;4.754;2022-10-16T14:57:45;4.23;;;1.60;;
8861;SDS011;4799;50.996;4.754;2022-10-16T15:00:17;2.93;;;1.40;;
8861;SDS011;4799;50.996;4.754;2022-10-16T15:02:48;3.00;;;1.40;;
8861;SDS011;4799;50.996;4.754;2022-10-16T15:07:43;3.77;;;1.70;;
8861;SDS011;4799;50.996;4.754;2022-10-16T15:10:09;4.97;;;1.60;;
8861;SDS011;4799;50.996;4.754;2022-10-16T15:12:35;4.07;;;1.57;;
8861;SDS011;4799;50.996;4.754;2022-10-16T15:15:01;3.30;;;1.50;;
8861;SDS011;4799;50.996;4.754;2022-10-16T15:17:27;3.03;;;1.47;;
8861;SDS011;4799;50.996;4.754;2022-10-16T15:19:52;6.03;;;1.53;;
8861;SDS011;4799;50.996;4.754;2022-10-16T15:22:18;3.07;;;1.50;;
8861;SDS011;4799;50.996;4.754;2022-10-16T15:24:44;2.83;;;1.37;;
8861;SDS011;4799;50.996;4.754;2022-10-16T15:27:09;3.73;;;1.40;;
8861;SDS011;4799;50.996;4.754;2022-10-16T15:29:35;2.53;;;1.37;;
8861;SDS011;4799;50.996;4.754;2022-10-16T15:32:01;2.37;;;1.40;;
8861;SDS011;4799;50.996;4.754;2022-10-16T15:34:27;3.10;;;1.70;;
8861;SDS011;4799;50.996;4.754;2022-10-16T15:36:52;5.13;;;1.77;;
8861;SDS011;4799;50.996;4.754;2022-10-16T15:39:20;3.63;;;1.80;;
8861;SDS011;4799;50.996;4.754;2022-10-16T15:41:46;4.27;;;1.60;;
8861;SDS011;4799;50.996;4.754;2022-10-16T15:44:19;3.20;;;1.60;;
8861;SDS011;4799;50.996;4.754;2022-10-16T15:46:46;5.03;;;1.90;;
8861;SDS011;4799;50.996;4.754;2022-10-16T15:49:12;7.97;;;1.57;;
8861;SDS011;4799;50.996;4.754;2022-10-16T15:51:38;3.07;;;1.53;;
8861;SDS011;4799;50.996;4.754;2022-10-16T15:54:06;4.13;;;1.70;;
8861;SDS011;4799;50.996;4.754;2022-10-16T15:56:32;3.33;;;1.83;;
8861;SDS011;4799;50.996;4.754;2022-10-16T15:58:58;4.63;;;2.10;;
8861;SDS011;4799;50.996;4.754;2022-10-16T16:01:25;4.47;;;2.17;;
8861;SDS011;4799;50.996;4.754;2022-10-16T16:03:55;5.77;;;2.00;;
8861;SDS011;4799;50.996;4.754;2022-10-16T16:06:21;5.00;;;1.93;;
8861;SDS011;4799;50.996;4.754;2022-10-16T16:08:50;3.47;;;1.90;;
8861;SDS011;4799;50.996;4.754;2022-10-16T16:11:16;3.53;;;1.67;;
8861;SDS011;4799;50.996;4.754;2022-10-16T16:13:44;3.23;;;1.90;;
8861;SDS011;4799;50.996;4.754;2022-10-16T16:16:10;4.53;;;2.50;;
8861;SDS011;4799;50.996;4.754;2022-10-16T16:18:41;4.00;;;2.00;;
8861;SDS011;4799;50.996;4.754;2022-10-16T16:21:08;4.77;;;2.00;;
8861;SDS011;4799;50.996;4.754;2022-10-16T16:23:36;3.83;;;1.97;;
8861;SDS011;4799;50.996;4.754;2022-10-16T16:26:44;3.53;;;1.80;;
8861;SDS011;4799;50.996;4.754;2022-10-16T16:28:59;4.00;;;2.33;;
8861;SDS011;4799;50.996;4.754;2022-10-16T16:31:25;5.07;;;2.20;;
8861;SDS011;4799;50.996;4.754;2022-10-16T16:33:53;4.47;;;1.90;;
8861;SDS011;4799;50.996;4.754;2022-10-16T16:36:19;5.37;;;1.93;;
8861;SDS011;4799;50.996;4.754;2022-10-16T16:38:45;3.87;;;2.10;;
8861;SDS011;4799;50.996;4.754;2022-10-16T16:41:15;7.90;;;2.93;;
8861;SDS011;4799;50.996;4.754;2022-10-16T16:43:45;3.60;;;2.03;;
8861;SDS011;4799;50.996;4.754;2022-10-16T16:46:12;5.43;;;2.80;;
8861;SDS011;4799;50.996;4.754;2022-10-16T16:48:39;5.27;;;2.53;;
8861;SDS011;4799;50.996;4.754;2022-10-16T16:51:06;3.13;;;2.00;;
8861;SDS011;4799;50.996;4.754;2022-10-16T16:53:34;3.90;;;2.30;;
8861;SDS011;4799;50.996;4.754;2022-10-16T16:56:01;3.63;;;2.10;;
8861;SDS011;4799;50.996;4.754;2022-10-16T16:58:28;4.60;;;2.50;;
8861;SDS011;4799;50.996;4.754;2022-10-16T17:00:53;3.47;;;2.47;;
8861;SDS011;4799;50.996;4.754;2022-10-16T17:03:19;5.80;;;2.80;;
8861;SDS011;4799;50.996;4.754;2022-10-16T17:05:54;3.60;;;2.40;;
8861;SDS011;4799;50.996;4.754;2022-10-16T17:08:24;3.77;;;2.30;;
8861;SDS011;4799;50.996;4.754;2022-10-16T17:10:49;3.80;;;2.63;;
8861;SDS011;4799;50.996;4.754;2022-10-16T17:13:18;5.60;;;2.40;;
8861;SDS011;4799;50.996;4.754;2022-10-16T17:15:48;4.47;;;2.63;;
8861;SDS011;4799;50.996;4.754;2022-10-16T17:18:15;4.50;;;2.40;;
8861;SDS011;4799;50.996;4.754;2022-10-16T17:20:42;4.53;;;3.03;;
8861;SDS011;4799;50.996;4.754;2022-10-16T17:23:08;5.63;;;3.20;;
8861;SDS011;4799;50.996;4.754;2022-10-16T17:25:36;4.50;;;2.87;;
8861;SDS011;4799;50.996;4.754;2022-10-16T17:28:06;3.43;;;2.60;;
8861;SDS011;4799;50.996;4.754;2022-10-16T17:30:33;6.73;;;3.60;;
8861;SDS011;4799;50.996;4.754;2022-10-16T17:33:00;5.67;;;3.60;;
8861;SDS011;4799;50.996;4.754;2022-10-16T17:35:26;6.33;;;3.53;;
8861;SDS011;4799;50.996;4.754;2022-10-16T17:37:52;6.00;;;3.27;;
8861;SDS011;4799;50.996;4.754;2022-10-16T17:40:18;4.83;;;3.33;;
8861;SDS011;4799;50.996;4.754;2022-10-16T17:42:44;5.93;;;4.30;;
8861;SDS011;4799;50.996;4.754;2022-10-16T17:45:10;4.10;;;3.70;;
8861;SDS011;4799;50.996;4.754;2022-10-16T17:47:36;8.50;;;6.43;;
8861;SDS011;4799;50.996;4.754;2022-10-16T17:50:02;6.40;;;5.70;;
8861;SDS011;4799;50.996;4.754;2022-10-16T17:52:29;5.50;;;4.80;;
8861;SDS011;4799;50.996;4.754;2022-10-16T17:54:54;8.23;;;5.67;;
8861;SDS011;4799;50.996;4.754;2022-10-16T17:57:22;9.07;;;8.27;;